Time;durP1;ratioP1;P1;durP2;ratioP2;P2;SDS_P1;SDS_P2;PMS_P1;PMS_P2;Temp;Humidity;BMP_temperature;BMP_pressure;BME280_temperature;BME280_humidity;BME280_pressure;Samples;Min_cycle;Max_cycle;Signal;HPM_P1;HPM_P2
2023/03/30 00:02:02;;;;;;;4.10;2.30;;;;;;;6.73;49.44;95693.25;5013279;28;20227;-71
2023/03/30 00:04:28;;;;;;;5.00;2.33;;;;;;;6.80;49.44;95690.88;5014440;28;20661;-71
2023/03/30 00:06:53;;;;;;;4.93;2.33;;;;;;;6.76;49.68;95698.16;4997407;28;20322;-70
2023/03/30 00:09:21;;;;;;;6.70;2.40;;;;;;;6.67;50.50;95687.88;5012733;28;20313;-70
2023/03/30 00:11:47;;;;;;;4.57;2.30;;;;;;;6.71;49.97;95690.00;4991840;28;20269;-70
2023/03/30 00:14:12;;;;;;;4.53;2.20;;;;;;;6.76;49.74;95682.56;4994656;28;20235;-72
2023/03/30 00:16:38;;;;;;;4.47;2.27;;;;;;;6.77;50.08;95683.38;4991334;28;20254;-70
2023/03/30 00:19:03;;;;;;;3.47;2.37;;;;;;;6.87;50.01;95691.06;5011206;28;20697;-71
2023/03/30 00:21:29;;;;;;;5.67;2.30;;;;;;;6.79;49.38;95687.44;4981471;28;20631;-70
2023/03/30 00:23:54;;;;;;;5.37;2.60;;;;;;;6.76;49.60;95679.13;4992068;28;20239;-71
2023/03/30 00:26:20;;;;;;;4.43;2.23;;;;;;;6.82;49.70;95685.50;5000652;28;20651;-71
2023/03/30 00:28:45;;;;;;;4.47;2.40;;;;;;;6.74;49.16;95684.50;5011792;28;20711;-71
2023/03/30 00:31:11;;;;;;;4.00;2.40;;;;;;;6.71;50.38;95681.41;5009922;28;20271;-71
2023/03/30 00:33:36;;;;;;;7.23;2.63;;;;;;;6.67;49.90;95680.91;5016668;28;20835;-71
2023/03/30 00:36:02;;;;;;;5.73;2.60;;;;;;;6.68;50.57;95682.53;5009893;28;20687;-70
2023/03/30 00:38:28;;;;;;;5.70;2.47;;;;;;;6.69;49.97;95689.34;5022784;28;20722;-70
2023/03/30 00:40:58;;;;;;;5.43;2.70;;;;;;;6.68;50.86;95699.94;5033828;28;20322;-70
2023/03/30 00:43:24;;;;;;;5.40;2.60;;;;;;;6.58;52.07;95697.44;5029956;28;20273;-71
2023/03/30 00:45:50;;;;;;;7.83;2.73;;;;;;;6.58;52.59;95687.03;5013560;28;20231;-70
2023/03/30 00:48:22;;;;;;;4.93;2.53;;;;;;;6.57;53.15;95681.97;5013247;28;20242;-71
2023/03/30 00:51:14;;;;;;;4.93;2.47;;;;;;;6.44;54.01;95685.03;5018087;28;20245;-71
2023/03/30 00:53:41;;;;;;;5.07;2.47;;;;;;;6.54;53.89;95677.13;5013441;28;20242;-71
2023/03/30 00:56:08;;;;;;;4.00;2.63;;;;;;;6.46;55.10;95684.88;5014905;28;20226;-71
2023/03/30 00:58:34;;;;;;;3.57;2.30;;;;;;;6.50;55.60;95689.59;5019106;28;20230;-71
2023/03/30 01:01:01;;;;;;;4.93;2.63;;;;;;;6.49;54.73;95690.59;5008367;28;20265;-71
2023/03/30 01:03:30;;;;;;;5.03;2.47;;;;;;;6.48;55.96;95685.53;5014759;28;20245;-70
2023/03/30 01:05:56;;;;;;;6.47;2.30;;;;;;;6.40;55.87;95693.31;5032624;28;20817;-71
2023/03/30 01:08:22;;;;;;;5.57;2.50;;;;;;;6.38;55.45;95688.25;5016903;28;20238;-71
2023/03/30 01:10:48;;;;;;;6.07;2.40;;;;;;;6.30;56.18;95684.78;5017056;28;20261;-71
2023/03/30 01:13:14;;;;;;;5.40;2.60;;;;;;;6.33;56.25;95687.09;5018713;28;20308;-70
2023/03/30 01:15:52;;;;;;;6.03;3.10;;;;;;;6.38;56.16;95688.25;5019251;28;20226;-71
2023/03/30 01:18:25;;;;;;;4.83;2.60;;;;;;;6.33;56.55;95685.28;5023276;28;20225;-71
2023/03/30 01:21:00;;;;;;;4.20;2.40;;;;;;;6.36;57.02;95684.97;5030674;28;20252;-69
2023/03/30 01:23:51;;;;;;;4.87;2.43;;;;;;;6.30;56.53;95683.00;5032211;28;20261;-71
2023/03/30 01:26:26;;;;;;;4.70;2.40;;;;;;;6.23;56.93;95694.19;5028849;28;20289;-70
2023/03/30 01:29:00;;;;;;;5.80;2.47;;;;;;;6.23;57.42;95687.19;5036720;28;20236;-71
2023/03/30 01:32:10;;;;;;;6.07;2.40;;;;;;;6.15;57.95;95684.53;5008470;28;20762;-70
2023/03/30 01:34:39;;;;;;;3.97;2.40;;;;;;;6.26;58.12;95691.28;5034219;28;20226;-70
2023/03/30 01:37:31;;;;;;;5.30;2.50;;;;;;;6.21;57.35;95696.91;5031927;28;20821;-70
2023/03/30 01:39:56;;;;;;;5.03;2.50;;;;;;;6.21;57.40;95702.09;5031530;28;20253;-71
2023/03/30 01:42:35;;;;;;;8.07;2.60;;;;;;;6.15;57.98;95699.31;5032935;28;20261;-70
2023/03/30 01:45:19;;;;;;;5.53;2.70;;;;;;;6.14;58.17;95693.28;5020517;28;20229;-70
2023/03/30 01:48:03;;;;;;;5.90;2.63;;;;;;;6.03;57.82;95696.97;5019267;28;20244;-71
2023/03/30 01:50:40;;;;;;;7.30;2.73;;;;;;;6.01;58.92;95693.72;4997882;28;20237;-71
2023/03/30 01:53:27;;;;;;;5.57;2.80;;;;;;;5.98;59.42;95688.81;5019822;28;20226;-71
2023/03/30 01:56:06;;;;;;;5.60;2.63;;;;;;;5.98;58.99;95688.81;5031103;28;20237;-70
2023/03/30 01:58:38;;;;;;;5.90;2.60;;;;;;;5.99;59.32;95692.25;5029164;28;20311;-70
2023/03/30 02:01:03;;;;;;;7.27;2.70;;;;;;;6.00;59.52;95692.09;5020709;28;20364;-70
2023/03/30 02:03:32;;;;;;;6.60;2.63;;;;;;;5.97;59.37;95691.59;5008230;28;20718;-70
2023/03/30 02:06:10;;;;;;;6.47;2.70;;;;;;;5.94;59.95;95694.47;5024557;28;20721;-71
2023/03/30 02:08:35;;;;;;;6.97;3.03;;;;;;;5.99;59.48;95697.44;5016054;28;20236;-72
2023/03/30 02:11:01;;;;;;;5.03;2.70;;;;;;;5.90;60.65;95688.75;5007801;28;20241;-70
2023/03/30 02:13:27;;;;;;;5.63;2.47;;;;;;;5.96;60.08;95695.97;5015186;28;20230;-70
2023/03/30 02:15:58;;;;;;;5.33;2.80;;;;;;;6.03;59.84;95690.97;5014762;28;20244;-71
2023/03/30 02:18:24;;;;;;;6.40;2.80;;;;;;;6.08;60.08;95694.75;5029638;28;20229;-71
2023/03/30 02:20:49;;;;;;;5.67;2.70;;;;;;;6.00;59.24;95699.06;5017038;28;20238;-70
2023/03/30 02:23:17;;;;;;;5.83;2.70;;;;;;;6.04;59.30;95701.19;5017646;28;20269;-71
2023/03/30 02:25:42;;;;;;;4.47;2.67;;;;;;;6.07;59.04;95706.09;5020910;28;20241;-71
2023/03/30 02:28:08;;;;;;;5.33;3.00;;;;;;;6.09;59.59;95691.16;5015027;28;20316;-71
2023/03/30 02:30:34;;;;;;;5.60;2.80;;;;;;;6.14;59.38;95695.09;5028722;28;20222;-71
2023/03/30 02:33:00;;;;;;;8.43;2.93;;;;;;;6.04;60.08;95701.19;5007617;28;20234;-71
2023/03/30 02:35:34;;;;;;;5.53;2.80;;;;;;;6.15;59.51;95701.91;5015926;28;20259;-71
2023/03/30 02:38:03;;;;;;;4.03;2.57;;;;;;;6.00;61.27;95707.66;5031180;28;20237;-71
2023/03/30 02:40:37;;;;;;;7.63;2.80;;;;;;;6.07;61.23;95706.09;5031554;28;20360;-71
2023/03/30 02:43:15;;;;;;;5.60;2.77;;;;;;;6.09;61.89;95713.72;5033346;28;20243;-71
2023/03/30 02:46:04;;;;;;;7.43;3.10;;;;;;;6.07;61.69;95713.06;5025769;28;20316;-70
2023/03/30 02:48:44;;;;;;;5.00;2.70;;;;;;;6.10;61.71;95708.41;4995179;28;20341;-70
2023/03/30 02:51:48;;;;;;;5.60;2.97;;;;;;;5.94;62.97;95710.88;4995207;28;20265;-70
2023/03/30 02:54:19;;;;;;;4.90;2.70;;;;;;;6.01;63.94;95706.72;4977728;28;20724;-71
2023/03/30 02:56:56;;;;;;;7.30;2.90;;;;;;;6.03;63.94;95716.94;5024923;28;20234;-71
2023/03/30 02:59:27;;;;;;;5.93;3.00;;;;;;;6.04;64.18;95708.19;5028952;28;20233;-70
2023/03/30 03:01:56;;;;;;;4.40;2.70;;;;;;;6.03;64.64;95709.16;5003056;28;20257;-71
2023/03/30 03:04:22;;;;;;;5.53;3.10;;;;;;;5.99;65.33;95713.03;5031122;28;21180;-71
2023/03/30 03:06:51;;;;;;;5.87;2.97;;;;;;;5.89;65.25;95714.91;5034212;28;20234;-71
2023/03/30 03:09:18;;;;;;;6.23;2.93;;;;;;;5.88;66.75;95715.84;5016305;28;20241;-71
2023/03/30 03:11:44;;;;;;;6.73;2.93;;;;;;;5.97;65.48;95720.16;5015535;28;20240;-71
2023/03/30 03:14:10;;;;;;;5.47;2.70;;;;;;;6.01;65.75;95724.09;5017291;28;20226;-71
2023/03/30 03:16:36;;;;;;;6.63;3.00;;;;;;;5.98;66.71;95727.78;5029741;28;20237;-70
2023/03/30 03:19:02;;;;;;;6.13;3.00;;;;;;;5.82;67.44;95732.84;5011341;28;20229;-71
2023/03/30 03:21:27;;;;;;;6.63;2.90;;;;;;;5.94;66.39;95726.47;5024242;28;20226;-70
2023/03/30 03:23:53;;;;;;;8.17;3.20;;;;;;;5.92;67.27;95730.19;5023980;28;20225;-71
2023/03/30 03:26:18;;;;;;;7.60;2.77;;;;;;;5.86;68.10;95728.19;5001232;28;20230;-70
2023/03/30 03:28:44;;;;;;;8.20;3.00;;;;;;;5.84;68.77;95723.16;5029339;28;20214;-71
2023/03/30 03:31:11;;;;;;;5.37;2.90;;;;;;;5.79;69.38;95722.75;5006684;28;20324;-70
2023/03/30 03:33:36;;;;;;;5.00;3.00;;;;;;;5.89;68.57;95733.09;5019565;28;20234;-71
2023/03/30 03:36:02;;;;;;;5.73;3.00;;;;;;;5.93;68.42;95737.00;5015992;28;20306;-71
2023/03/30 03:38:27;;;;;;;6.80;3.47;;;;;;;5.92;69.54;95725.00;5015127;28;20329;-71
2023/03/30 03:40:54;;;;;;;4.87;3.00;;;;;;;5.87;70.11;95724.63;5003072;28;20233;-71
2023/03/30 03:43:20;;;;;;;5.23;2.90;;;;;;;5.96;69.49;95742.72;5015134;28;20711;-71
2023/03/30 03:45:46;;;;;;;6.77;3.20;;;;;;;5.84;70.97;95743.06;5016997;28;20232;-71
2023/03/30 03:48:15;;;;;;;6.33;3.20;;;;;;;5.69;72.04;95740.19;5008423;28;20710;-71
2023/03/30 03:50:41;;;;;;;6.73;3.40;;;;;;;5.76;72.29;95741.22;5035138;28;21053;-70
2023/03/30 03:53:10;;;;;;;4.70;3.20;;;;;;;5.75;73.37;95749.19;5003893;28;20761;-72
2023/03/30 03:55:35;;;;;;;4.53;3.20;;;;;;;5.64;73.55;95746.78;5003191;28;20863;-71
2023/03/30 03:58:02;;;;;;;7.77;3.60;;;;;;;5.61;74.49;95749.69;4997189;28;20233;-71
2023/03/30 04:00:28;;;;;;;6.10;3.40;;;;;;;5.64;74.41;95750.19;5032690;28;20617;-70
2023/03/30 04:02:53;;;;;;;6.40;3.50;;;;;;;5.63;74.91;95747.78;5037376;28;20255;-70
2023/03/30 04:05:18;;;;;;;8.13;3.63;;;;;;;5.63;75.53;95755.56;5004456;28;20626;-71
2023/03/30 04:07:47;;;;;;;6.50;3.87;;;;;;;5.65;74.93;95751.03;5031945;28;20383;-71
2023/03/30 04:10:12;;;;;;;5.30;3.47;;;;;;;5.62;75.36;95752.13;5033011;28;21049;-71
2023/03/30 04:12:38;;;;;;;5.83;3.57;;;;;;;5.69;74.63;95744.56;5025670;28;20233;-71
2023/03/30 04:15:05;;;;;;;7.23;3.70;;;;;;;5.51;75.64;95751.56;5031562;28;20283;-71
2023/03/30 04:17:32;;;;;;;6.47;3.60;;;;;;;5.70;74.89;95748.81;5013999;28;20238;-71
2023/03/30 04:20:01;;;;;;;7.50;3.40;;;;;;;5.63;75.57;95748.59;5002278;28;20720;-71
2023/03/30 04:22:29;;;;;;;6.03;3.60;;;;;;;5.73;75.05;95744.09;5046476;28;20226;-71
2023/03/30 04:24:55;;;;;;;6.70;3.50;;;;;;;5.78;74.69;95746.28;5029029;28;20248;-71
2023/03/30 04:27:24;;;;;;;7.67;3.70;;;;;;;5.73;75.49;95744.09;5015691;28;20229;-71
2023/03/30 04:29:50;;;;;;;5.53;3.30;;;;;;;5.75;74.96;95744.81;5015902;28;21154;-70
2023/03/30 04:32:19;;;;;;;5.63;3.43;;;;;;;5.66;75.23;95752.66;5032497;28;20250;-71
2023/03/30 04:34:48;;;;;;;6.37;3.43;;;;;;;5.70;74.73;95746.22;5016123;28;20295;-71
2023/03/30 04:37:17;;;;;;;6.20;3.67;;;;;;;5.60;75.62;95740.28;5014653;28;20234;-72
2023/03/30 04:39:43;;;;;;;7.67;3.90;;;;;;;5.71;75.52;95750.44;4998250;28;20229;-69
2023/03/30 04:42:12;;;;;;;7.77;3.90;;;;;;;5.69;74.90;95752.34;5044205;28;20230;-70
2023/03/30 04:44:39;;;;;;;6.40;3.40;;;;;;;5.78;74.11;95751.47;5018499;28;20249;-72
2023/03/30 04:47:05;;;;;;;9.07;4.00;;;;;;;5.67;74.30;95760.31;5016802;28;20904;-72
2023/03/30 04:49:30;;;;;;;7.43;4.00;;;;;;;5.77;74.62;95761.03;5019682;28;20307;-70
2023/03/30 04:51:56;;;;;;;6.37;3.67;;;;;;;5.80;73.95;95760.75;5015753;28;20240;-71
2023/03/30 04:54:21;;;;;;;6.97;4.10;;;;;;;5.80;74.24;95752.97;5032526;28;20767;-70
2023/03/30 04:56:47;;;;;;;11.07;3.63;;;;;;;5.70;74.32;95752.22;5033498;28;20241;-71
2023/03/30 04:59:13;;;;;;;8.60;3.70;;;;;;;5.91;73.13;95767.50;5013493;28;20217;-70
2023/03/30 05:01:38;;;;;;;7.60;3.70;;;;;;;5.84;73.87;95758.66;5021455;28;20222;-71
2023/03/30 05:04:04;;;;;;;12.53;4.10;;;;;;;5.98;73.48;95771.97;5031362;28;20226;-71
2023/03/30 05:06:29;;;;;;;8.00;3.93;;;;;;;5.95;73.50;95774.03;5032642;28;20226;-70
2023/03/30 05:08:55;;;;;;;7.17;3.87;;;;;;;5.87;73.76;95772.22;5039346;28;20234;-70
2023/03/30 05:11:20;;;;;;;10.33;4.10;;;;;;;5.88;73.78;95765.22;5031109;28;20659;-70
2023/03/30 05:13:46;;;;;;;8.60;4.00;;;;;;;5.99;73.50;95770.19;5014487;28;20681;-71
2023/03/30 05:16:11;;;;;;;12.87;4.40;;;;;;;5.88;73.77;95765.22;5027610;28;20598;-72
2023/03/30 05:18:38;;;;;;;9.40;4.77;;;;;;;5.88;74.35;95770.41;5026361;28;20260;-71
2023/03/30 05:21:03;;;;;;;9.73;4.90;;;;;;;5.80;75.57;95771.16;5032456;28;20746;-71
2023/03/30 05:23:29;;;;;;;12.17;4.60;;;;;;;5.69;76.62;95763.56;5031659;28;20238;-75
2023/03/30 05:25:55;;;;;;;11.33;4.80;;;;;;;5.63;76.87;95764.16;5021206;28;20360;-75
2023/03/30 05:28:21;;;;;;;11.47;4.87;;;;;;;5.77;75.83;95768.00;5008052;28;20675;-73
2023/03/30 05:30:52;;;;;;;10.93;4.90;;;;;;;5.80;76.60;95763.34;5017479;28;20223;-73
2023/03/30 05:33:17;;;;;;;10.00;4.80;;;;;;;5.85;77.14;95774.13;5011361;28;20222;-73
2023/03/30 05:35:43;;;;;;;8.93;5.10;;;;;;;5.68;77.99;95763.72;5033203;28;20625;-73
2023/03/30 05:38:08;;;;;;;9.80;4.73;;;;;;;5.87;77.17;95763.59;4998924;28;20235;-74
2023/03/30 05:40:34;;;;;;;12.57;4.90;;;;;;;5.95;77.91;95766.25;5013836;28;20787;-73
2023/03/30 05:42:59;;;;;;;14.60;5.10;;;;;;;5.89;78.59;95756.47;5008219;28;20888;-73
2023/03/30 05:45:25;;;;;;;12.23;5.07;;;;;;;5.73;79.75;95766.69;5029805;28;20291;-74
2023/03/30 05:47:53;;;;;;;11.80;5.00;;;;;;;5.68;80.19;95777.53;5003754;28;20234;-70
2023/03/30 05:50:18;;;;;;;9.27;4.70;;;;;;;5.52;81.44;95771.38;5003401;28;20254;-72
2023/03/30 05:52:44;;;;;;;12.13;5.20;;;;;;;5.58;81.65;95771.59;5000608;28;20246;-72
2023/03/30 05:55:10;;;;;;;11.13;5.33;;;;;;;5.71;81.56;95773.81;5005234;28;20234;-72
2023/03/30 05:57:36;;;;;;;12.77;5.60;;;;;;;5.70;82.08;95774.78;5013461;28;20321;-72
2023/03/30 06:00:05;;;;;;;15.97;6.40;;;;;;;5.60;82.72;95781.81;5013317;28;20233;-73
2023/03/30 06:02:31;;;;;;;19.27;7.13;;;;;;;5.57;82.91;95782.09;5007793;28;20786;-72
2023/03/30 06:04:56;;;;;;;16.27;7.00;;;;;;;5.78;81.80;95780.84;5023909;28;20316;-73
2023/03/30 06:07:23;;;;;;;18.47;7.10;;;;;;;5.78;82.24;95793.03;5029215;28;20238;-73
2023/03/30 06:09:49;;;;;;;13.37;5.60;;;;;;;5.57;83.89;95787.28;5019018;28;20229;-72
2023/03/30 06:12:14;;;;;;;15.60;5.50;;;;;;;5.59;82.93;95796.56;5023306;28;20237;-73
2023/03/30 06:14:40;;;;;;;10.87;4.93;;;;;;;5.52;83.93;95802.53;5008175;28;20267;-72
2023/03/30 06:17:06;;;;;;;20.63;6.30;;;;;;;5.71;83.03;95799.78;5033680;28;20230;-72
2023/03/30 06:19:31;;;;;;;16.63;5.97;;;;;;;5.79;81.25;95800.66;5028190;28;20328;-73
2023/03/30 06:21:57;;;;;;;17.43;6.40;;;;;;;5.79;80.35;95802.44;5017485;28;20726;-72
2023/03/30 06:24:23;;;;;;;17.47;7.20;;;;;;;5.67;81.24;95806.22;5015418;28;20226;-73
2023/03/30 06:26:49;;;;;;;18.93;7.90;;;;;;;5.68;80.91;95802.69;4999656;28;20677;-73
2023/03/30 06:29:15;;;;;;;20.47;8.27;;;;;;;5.79;80.94;95805.88;5040485;28;20883;-72
2023/03/30 06:31:40;;;;;;;17.23;8.93;;;;;;;5.98;80.47;95808.34;5032711;28;20225;-72
2023/03/30 06:34:06;;;;;;;15.00;8.73;;;;;;;5.85;80.22;95807.88;5031585;28;20241;-72
2023/03/30 06:36:31;;;;;;;18.67;8.20;;;;;;;5.79;80.31;95810.22;5021898;28;20252;-72
2023/03/30 06:38:57;;;;;;;17.30;7.80;;;;;;;6.02;79.67;95803.63;5015594;28;20230;-72
2023/03/30 06:41:22;;;;;;;19.83;8.17;;;;;;;6.26;79.32;95805.66;5007842;28;20237;-72
2023/03/30 06:43:48;;;;;;;17.43;8.30;;;;;;;6.18;79.30;95808.16;5018236;28;20319;-72
2023/03/30 06:46:14;;;;;;;21.03;8.80;;;;;;;6.05;80.16;95803.34;5011423;28;21025;-72
2023/03/30 06:48:40;;;;;;;20.40;8.77;;;;;;;6.28;79.01;95806.31;5007065;28;20230;-72
2023/03/30 06:51:07;;;;;;;19.33;8.33;;;;;;;6.26;78.31;95809.03;5026724;28;20238;-72
2023/03/30 06:53:33;;;;;;;17.03;8.30;;;;;;;6.53;78.47;95821.91;4993975;28;20226;-72
2023/03/30 06:55:58;;;;;;;16.97;7.30;;;;;;;6.34;77.39;95821.28;5008947;28;20703;-72
2023/03/30 06:58:24;;;;;;;18.50;7.67;;;;;;;6.40;77.22;95818.88;4992729;28;20343;-73
2023/03/30 07:00:50;;;;;;;23.03;7.93;;;;;;;6.66;76.99;95813.72;5010642;28;20230;-73
2023/03/30 07:03:17;;;;;;;17.83;6.23;;;;;;;6.83;75.80;95822.44;4997215;28;20238;-72
2023/03/30 07:05:47;;;;;;;13.83;5.80;;;;;;;6.89;73.84;95827.00;4996919;28;20221;-73
2023/03/30 07:08:13;;;;;;;13.07;5.53;;;;;;;7.10;73.44;95827.44;4991284;28;20231;-73
2023/03/30 07:10:39;;;;;;;13.13;5.90;;;;;;;7.00;73.40;95826.75;4992319;28;20247;-73
2023/03/30 07:13:06;;;;;;;14.30;6.10;;;;;;;7.08;73.51;95824.16;4980540;28;20700;-73
2023/03/30 07:15:31;;;;;;;10.40;5.73;;;;;;;6.90;73.40;95826.03;4997924;28;22333;-72
2023/03/30 07:17:57;;;;;;;16.03;5.70;;;;;;;6.86;73.44;95832.50;4986346;28;20296;-73
2023/03/30 07:20:22;;;;;;;18.37;6.10;;;;;;;7.09;71.50;95834.44;4993242;28;20230;-73
2023/03/30 07:22:48;;;;;;;14.00;5.77;;;;;;;7.21;71.69;95837.59;4993721;28;20811;-71
2023/03/30 07:25:13;;;;;;;11.03;5.43;;;;;;;7.20;69.84;95834.16;4995406;28;20230;-70
2023/03/30 07:27:39;;;;;;;17.47;6.87;;;;;;;7.10;71.13;95833.47;4995096;28;20355;-70
2023/03/30 07:30:06;;;;;;;13.73;5.80;;;;;;;7.45;69.27;95828.06;4993864;28;20308;-70
2023/03/30 07:32:32;;;;;;;13.77;5.60;;;;;;;7.69;68.73;95824.69;4975292;28;20238;-70
2023/03/30 07:34:57;;;;;;;12.97;6.10;;;;;;;7.83;67.79;95828.50;4991285;28;20269;-70
2023/03/30 07:37:23;;;;;;;11.07;5.63;;;;;;;7.60;68.15;95835.25;4990685;28;20289;-69
2023/03/30 07:39:49;;;;;;;10.93;5.57;;;;;;;7.63;67.65;95825.34;5001280;28;20266;-70
2023/03/30 07:42:14;;;;;;;11.20;5.50;;;;;;;7.62;68.22;95835.94;4991751;28;20241;-70
2023/03/30 07:44:40;;;;;;;13.67;5.87;;;;;;;8.03;68.03;95841.06;5013978;28;20300;-72
2023/03/30 07:47:05;;;;;;;13.57;6.10;;;;;;;8.14;67.00;95826.91;4995254;28;20292;-72
2023/03/30 07:49:31;;;;;;;12.67;5.80;;;;;;;8.53;66.03;95832.28;4997447;28;20330;-72
2023/03/30 07:51:57;;;;;;;15.57;6.53;;;;;;;8.81;64.77;95823.16;4983459;28;20244;-72
2023/03/30 07:54:22;;;;;;;13.83;6.43;;;;;;;9.04;63.91;95818.84;4983805;28;20326;-72
2023/03/30 07:56:54;;;;;;;12.60;6.27;;;;;;;9.37;62.65;95822.13;4988187;28;20238;-72
2023/03/30 07:59:20;;;;;;;12.90;5.80;;;;;;;8.96;62.89;95821.47;5021590;28;20237;-70
2023/03/30 08:01:49;;;;;;;12.67;6.30;;;;;;;8.88;63.35;95826.72;4998515;28;20317;-70
2023/03/30 08:04:17;;;;;;;14.53;6.63;;;;;;;8.52;63.64;95825.47;4996997;28;20253;-71
2023/03/30 08:06:42;;;;;;;17.80;6.00;;;;;;;8.77;63.33;95830.47;4997198;28;20234;-71
2023/03/30 08:09:09;;;;;;;13.37;6.47;;;;;;;9.16;63.39;95829.72;5015346;28;20318;-71
2023/03/30 08:11:35;;;;;;;12.53;6.00;;;;;;;9.36;63.43;95830.97;5004737;28;20290;-71
2023/03/30 08:14:01;;;;;;;14.07;6.70;;;;;;;8.89;62.50;95827.50;5019659;28;20281;-71
2023/03/30 08:16:27;;;;;;;14.63;6.27;;;;;;;9.16;62.88;95820.09;5020296;28;20226;-70
2023/03/30 08:18:53;;;;;;;21.77;7.43;;;;;;;9.63;60.90;95814.00;5010934;28;20233;-70
2023/03/30 08:21:20;;;;;;;15.50;6.27;;;;;;;8.98;61.67;95811.66;5025224;28;20895;-70
2023/03/30 08:23:45;;;;;;;18.67;6.70;;;;;;;9.12;60.27;95816.19;5009561;28;20230;-70
2023/03/30 08:26:11;;;;;;;15.83;6.50;;;;;;;8.86;61.85;95814.81;5012772;28;20239;-70
2023/03/30 08:28:37;;;;;;;14.83;6.50;;;;;;;8.94;61.94;95805.16;5033453;28;20241;-70
2023/03/30 08:31:04;;;;;;;12.67;6.20;;;;;;;9.46;60.76;95806.25;5031982;28;22020;-70
2023/03/30 08:33:30;;;;;;;13.13;6.30;;;;;;;9.67;60.39;95812.69;5023722;28;20626;-69
2023/03/30 08:35:56;;;;;;;16.03;6.70;;;;;;;9.48;59.60;95806.91;5006000;28;20238;-71
2023/03/30 08:38:21;;;;;;;11.13;6.30;;;;;;;9.58;59.49;95798.06;5015241;28;20337;-71
2023/03/30 08:40:47;;;;;;;13.07;6.30;;;;;;;9.54;59.18;95810.63;5023085;28;21019;-71
2023/03/30 08:43:49;;;;;;;11.90;5.97;;;;;;;9.49;58.66;95808.53;5025999;28;20699;-71
2023/03/30 08:46:15;;;;;;;16.07;5.93;;;;;;;9.82;58.68;95814.41;5028184;28;20241;-70
2023/03/30 08:48:41;;;;;;;13.43;6.33;;;;;;;9.79;58.05;95817.34;5022198;28;20596;-71
2023/03/30 08:51:22;;;;;;;13.27;6.37;;;;;;;9.80;58.04;95818.16;5009461;28;20229;-71
2023/03/30 08:53:50;;;;;;;13.43;6.23;;;;;;;9.96;59.24;95808.41;5017342;28;20329;-70
2023/03/30 08:56:19;;;;;;;16.00;6.50;;;;;;;10.00;58.22;95807.09;5001181;28;20282;-70
2023/03/30 08:59:01;;;;;;;10.77;5.80;;;;;;;9.86;58.29;95804.41;5019267;28;20226;-70
2023/03/30 09:01:40;;;;;;;13.13;5.70;;;;;;;9.98;57.23;95805.66;5015938;28;20328;-70
2023/03/30 09:04:17;;;;;;;10.67;5.43;;;;;;;10.22;57.42;95799.44;5032793;28;20245;-70
2023/03/30 09:06:45;;;;;;;12.30;5.50;;;;;;;10.06;56.18;95793.31;5027191;28;20240;-70
2023/03/30 09:09:12;;;;;;;13.87;5.83;;;;;;;10.04;56.08;95789.25;5036188;28;20240;-71
2023/03/30 09:11:38;;;;;;;13.80;5.63;;;;;;;10.58;55.71;95787.38;5017584;28;20237;-71
2023/03/30 09:14:05;;;;;;;12.00;5.30;;;;;;;10.56;54.52;95777.06;5031544;28;20230;-71
2023/03/30 09:16:38;;;;;;;9.90;5.00;;;;;;;10.59;54.91;95783.75;5012322;28;20582;-70
2023/03/30 09:19:04;;;;;;;12.33;5.30;;;;;;;10.77;53.37;95777.16;4996706;28;20238;-71
2023/03/30 09:21:30;;;;;;;15.47;5.30;;;;;;;11.06;53.50;95773.75;5008704;28;20291;-70
2023/03/30 09:23:57;;;;;;;10.30;4.60;;;;;;;11.15;51.62;95774.47;5012111;28;20227;-70
2023/03/30 09:26:34;;;;;;;11.07;4.80;;;;;;;10.86;52.29;95769.25;5009941;28;20229;-70
2023/03/30 09:29:26;;;;;;;8.57;4.93;;;;;;;11.41;51.40;95765.16;5018983;28;20230;-71
2023/03/30 09:32:26;;;;;;;12.03;5.00;;;;;;;11.90;51.80;95760.06;5028885;28;20719;-71
2023/03/30 09:34:59;;;;;;;11.20;5.27;;;;;;;12.20;49.91;95754.69;5014657;28;20237;-71
2023/03/30 09:37:25;;;;;;;11.13;5.00;;;;;;;12.18;50.06;95747.78;5010895;28;20659;-71
2023/03/30 09:39:50;;;;;;;11.30;5.20;;;;;;;11.82;50.08;95747.03;5008593;28;20326;-71
2023/03/30 09:42:36;;;;;;;15.20;5.13;;;;;;;12.05;49.35;95752.94;5006020;28;20345;-70
2023/03/30 09:45:41;;;;;;;15.30;5.13;;;;;;;12.18;50.17;95751.44;5027586;28;20325;-70
2023/03/30 09:48:07;;;;;;;11.33;4.30;;;;;;;12.36;48.26;95755.22;5005234;28;20941;-70
2023/03/30 09:50:40;;;;;;;6.80;3.20;;;;;;;12.20;47.66;95744.19;4988675;28;20238;-70
2023/03/30 09:53:17;;;;;;;7.93;2.97;;;;;;;12.20;46.60;95745.00;4989128;28;20273;-70
2023/03/30 09:56:06;;;;;;;5.70;3.00;;;;;;;12.34;46.36;95746.72;5004575;28;20250;-70
2023/03/30 09:58:32;;;;;;;6.47;2.93;;;;;;;12.22;45.39;95736.94;5013434;28;20234;-69
2023/03/30 10:01:13;;;;;;;8.30;2.80;;;;;;;11.71;47.05;95731.81;5007993;28;20233;-70
2023/03/30 10:03:40;;;;;;;6.60;3.10;;;;;;;11.71;46.68;95729.19;5011868;28;20249;-70
2023/03/30 10:06:06;;;;;;;5.17;2.90;;;;;;;11.78;48.25;95732.69;4993791;28;20396;-70
2023/03/30 10:08:40;;;;;;;8.00;3.30;;;;;;;11.86;48.46;95724.72;5024409;28;20237;-70
2023/03/30 10:11:06;;;;;;;7.03;2.90;;;;;;;12.08;47.13;95736.81;5007972;28;20236;-71
2023/03/30 10:13:34;;;;;;;6.83;2.97;;;;;;;11.95;46.71;95736.69;5031069;28;20242;-70
2023/03/30 10:16:28;;;;;;;6.90;2.80;;;;;;;11.84;47.09;95731.97;5015625;28;20233;-70
2023/03/30 10:19:01;;;;;;;5.13;2.80;;;;;;;11.78;46.91;95730.06;5021628;28;20240;-70
2023/03/30 10:21:37;;;;;;;6.70;2.50;;;;;;;11.78;46.44;95730.06;5020774;28;20229;-71
2023/03/30 10:24:03;;;;;;;4.50;2.60;;;;;;;12.16;45.79;95720.94;4998730;28;20237;-70
2023/03/30 10:26:29;;;;;;;4.43;2.60;;;;;;;13.10;44.99;95718.75;5028324;28;20616;-70
2023/03/30 10:29:02;;;;;;;6.47;2.60;;;;;;;13.47;43.75;95719.09;5000818;28;20731;-71
2023/03/30 10:31:27;;;;;;;3.73;2.60;;;;;;;13.01;45.04;95710.19;5021179;28;20328;-72
2023/03/30 10:33:57;;;;;;;7.80;2.70;;;;;;;12.60;45.25;95715.41;5028570;28;20230;-72
2023/03/30 10:36:24;;;;;;;7.83;2.83;;;;;;;12.45;45.44;95724.38;5039625;28;20284;-72
2023/03/30 10:38:50;;;;;;;3.10;2.30;;;;;;;12.38;45.60;95720.91;5018647;28;20350;-70
2023/03/30 10:41:19;;;;;;;4.60;2.60;;;;;;;12.41;45.43;95713.47;5018111;28;20915;-70
2023/03/30 10:43:45;;;;;;;6.57;2.80;;;;;;;12.49;45.46;95709.88;5010969;28;20236;-70
2023/03/30 10:46:15;;;;;;;6.90;2.70;;;;;;;12.47;45.10;95701.38;5008024;28;20238;-70
2023/03/30 10:49:02;;;;;;;5.60;2.57;;;;;;;12.51;45.83;95702.63;5017290;28;20221;-70
2023/03/30 10:51:30;;;;;;;5.53;2.63;;;;;;;12.63;45.69;95701.09;5030130;28;20242;-70
2023/03/30 10:54:15;;;;;;;5.00;2.70;;;;;;;12.53;45.77;95690.13;5031000;28;20339;-70
2023/03/30 10:56:45;;;;;;;4.23;2.60;;;;;;;12.52;45.65;95691.09;5030391;28;20644;-71
2023/03/30 10:59:36;;;;;;;4.10;2.73;;;;;;;12.59;45.05;95681.44;5031658;28;20237;-70
2023/03/30 11:02:16;;;;;;;11.30;3.03;;;;;;;12.96;45.34;95675.00;5039989;28;20238;-71
2023/03/30 11:04:54;;;;;;;5.83;3.10;;;;;;;12.94;45.81;95669.13;5027773;28;20789;-71
2023/03/30 11:07:30;;;;;;;5.33;2.80;;;;;;;12.92;45.16;95668.50;4995106;28;20248;-70
2023/03/30 11:09:59;;;;;;;5.47;3.07;;;;;;;12.67;45.15;95666.38;5014860;28;20368;-70
2023/03/30 11:12:25;;;;;;;5.17;2.93;;;;;;;12.68;45.21;95670.59;5003422;28;20767;-71
2023/03/30 11:15:14;;;;;;;4.17;2.70;;;;;;;13.07;45.14;95671.81;4989880;28;20309;-71
2023/03/30 11:17:59;;;;;;;4.13;2.50;;;;;;;12.90;43.85;95658.19;5025133;28;20221;-71
2023/03/30 11:20:28;;;;;;;7.03;2.40;;;;;;;13.29;43.86;95663.63;5002750;28;20931;-70
2023/03/30 11:23:09;;;;;;;3.63;2.40;;;;;;;13.29;43.09;95650.47;5024975;28;20625;-70
2023/03/30 11:25:45;;;;;;;4.60;2.87;;;;;;;13.36;43.56;95646.06;5021967;28;20225;-70
2023/03/30 11:28:44;;;;;;;4.80;2.60;;;;;;;13.83;43.14;95642.47;5035833;28;20744;-70
2023/03/30 11:31:39;;;;;;;5.53;2.60;;;;;;;13.76;42.35;95648.72;5045258;28;20626;-70
2023/03/30 11:34:20;;;;;;;5.13;2.60;;;;;;;13.70;41.89;95642.47;5023843;28;20237;-70
2023/03/30 11:37:29;;;;;;;5.77;2.60;;;;;;;13.89;41.57;95639.06;5037992;28;20237;-72
2023/03/30 11:40:12;;;;;;;5.60;2.40;;;;;;;14.29;41.14;95637.19;5003055;28;20272;-71
2023/03/30 11:42:38;;;;;;;5.53;2.50;;;;;;;14.41;40.49;95630.31;5016556;28;20232;-71
2023/03/30 11:45:39;;;;;;;5.73;2.60;;;;;;;14.24;40.54;95626.47;5013020;28;20240;-70
2023/03/30 11:48:28;;;;;;;4.33;2.40;;;;;;;14.09;40.71;95621.41;5018582;28;20244;-71
2023/03/30 11:51:03;;;;;;;6.37;2.30;;;;;;;14.65;41.15;95613.84;5052441;28;20234;-71